createdAt,value
2017-11-16T00:00:56.583Z,32.45
2017-11-16T00:03:24.179Z,31.23
2017-11-16T00:05:52.547Z,30.70
2017-11-16T00:08:20.153Z,31.08
2017-11-16T00:10:47.753Z,31.48
2017-11-16T00:13:15.388Z,29.48
2017-11-16T00:15:43.001Z,30.95
2017-11-16T00:18:10.602Z,30.35
2017-11-16T00:20:38.193Z,30.77
2017-11-16T00:23:05.787Z,31.17
2017-11-16T00:25:33.396Z,30.33
2017-11-16T00:28:00.996Z,31.30
2017-11-16T00:30:29.352Z,31.45
2017-11-16T00:32:56.948Z,29.83
2017-11-16T00:35:24.494Z,30.08
2017-11-16T00:37:52.848Z,29.27
2017-11-16T00:40:20.480Z,28.75
2017-11-16T00:42:48.079Z,29.50
2017-11-16T00:45:15.669Z,29.50
2017-11-16T00:47:43.256Z,28.90
2017-11-16T00:50:10.893Z,29.58
2017-11-16T00:52:38.492Z,29.33
2017-11-16T00:55:06.085Z,30.58
2017-11-16T00:57:34.476Z,30.40
2017-11-16T01:00:02.836Z,30.80
2017-11-16T01:02:30.387Z,28.08
2017-11-16T01:04:58.025Z,30.75
2017-11-16T01:07:25.580Z,27.20
2017-11-16T01:09:53.175Z,27.60
2017-11-16T01:12:20.759Z,26.95
2017-11-16T01:14:49.116Z,28.27
2017-11-16T01:17:16.716Z,28.95
2017-11-16T01:19:44.308Z,31.40
2017-11-16T01:22:11.904Z,28.55
2017-11-16T01:24:39.489Z,27.80
2017-11-16T01:27:07.051Z,27.13
2017-11-16T01:29:34.617Z,26.60
2017-11-16T01:32:02.216Z,26.17
2017-11-16T01:34:29.827Z,26.87
2017-11-16T01:36:57.422Z,28.55
2017-11-16T01:39:25.028Z,27.20
2017-11-16T01:41:52.649Z,26.12
2017-11-16T01:44:20.202Z,24.10
2017-11-16T01:46:47.801Z,22.42
2017-11-16T01:49:15.401Z,25.98
2017-11-16T01:51:42.992Z,25.30
2017-11-16T01:54:10.551Z,24.52
2017-11-16T01:56:38.148Z,25.27
2017-11-16T01:59:06.483Z,26.40
2017-11-16T02:01:34.075Z,26.58
2017-11-16T02:04:01.631Z,25.02
2017-11-16T02:06:30.049Z,24.23
2017-11-16T02:08:58.372Z,24.58
2017-11-16T02:11:25.929Z,23.70
2017-11-16T02:13:53.523Z,23.70
2017-11-16T02:16:21.111Z,22.67
2017-11-16T02:18:48.702Z,24.27
2017-11-16T02:21:16.323Z,23.23
2017-11-16T02:23:44.660Z,22.62
2017-11-16T02:26:12.269Z,23.60
2017-11-16T02:28:39.873Z,21.52
2017-11-16T02:31:07.499Z,23.45
2017-11-16T02:33:35.032Z,21.62
2017-11-16T02:36:03.366Z,20.67
2017-11-16T02:38:30.976Z,23.58
2017-11-16T02:40:59.373Z,22.50
2017-11-16T02:43:26.978Z,21.87
2017-11-16T02:45:54.599Z,21.62
2017-11-16T02:48:22.204Z,22.20
2017-11-16T02:50:49.812Z,23.08
2017-11-16T02:53:17.498Z,27.92
2017-11-16T02:55:45.119Z,27.40
2017-11-16T02:58:13.534Z,25.90
2017-11-16T03:00:41.134Z,25.85
2017-11-16T03:03:08.732Z,25.98
2017-11-16T03:05:37.097Z,24.27
2017-11-16T03:08:04.653Z,25.25
2017-11-16T03:10:32.260Z,23.25
2017-11-16T03:12:59.819Z,24.55
2017-11-16T03:15:27.388Z,24.80
2017-11-16T03:17:54.965Z,24.75
2017-11-16T03:20:22.560Z,22.85
2017-11-16T03:22:50.943Z,24.15
2017-11-16T03:25:19.316Z,25.55
2017-11-16T03:27:46.939Z,26.17
2017-11-16T03:30:14.502Z,28.10
2017-11-16T03:32:42.093Z,26.50
2017-11-16T03:35:10.464Z,26.87
2017-11-16T03:37:38.056Z,25.95
2017-11-16T03:40:06.425Z,27.70
2017-11-16T03:42:34.793Z,27.35
2017-11-16T03:45:02.381Z,26.30
2017-11-16T03:47:29.972Z,26.52
2017-11-16T03:49:57.534Z,31.10
2017-11-16T03:52:25.139Z,29.90
2017-11-16T03:54:53.504Z,35.05
2017-11-16T03:57:21.139Z,36.25
2017-11-16T03:59:48.732Z,35.95
2017-11-16T04:02:17.136Z,34.75
2017-11-16T04:04:45.495Z,34.60
2017-11-16T04:07:13.864Z,38.65
2017-11-16T04:09:41.470Z,33.88
2017-11-16T04:12:09.060Z,31.33
2017-11-16T04:14:36.672Z,29.40
2017-11-16T04:17:05.035Z,28.75
2017-11-16T04:19:33.358Z,33.45
2017-11-16T04:22:00.956Z,31.20
2017-11-16T04:24:28.520Z,26.20
2017-11-16T04:26:56.125Z,26.35
2017-11-16T04:29:23.719Z,27.70
2017-11-16T04:31:51.387Z,24.80
2017-11-16T04:34:19.005Z,24.12
2017-11-16T04:36:46.624Z,23.65
2017-11-16T04:39:14.970Z,23.30
2017-11-16T04:41:42.483Z,23.30
2017-11-16T04:44:10.805Z,25.17
2017-11-16T04:46:38.396Z,24.95
2017-11-16T04:49:06.033Z,23.58
2017-11-16T04:51:33.680Z,23.83
2017-11-16T04:54:01.269Z,23.33
2017-11-16T04:56:28.859Z,21.98
2017-11-16T04:58:56.445Z,22.20
2017-11-16T05:01:24.028Z,21.25
2017-11-16T05:03:51.635Z,23.38
2017-11-16T05:06:19.242Z,20.65
2017-11-16T05:08:46.855Z,22.27
2017-11-16T05:11:14.452Z,21.90
2017-11-16T05:13:42.082Z,21.48
2017-11-16T05:16:10.465Z,22.90
2017-11-16T05:18:38.825Z,22.95
2017-11-16T05:21:06.429Z,22.10
2017-11-16T05:23:34.020Z,23.02
2017-11-16T05:26:01.590Z,22.90
2017-11-16T05:28:29.213Z,21.58
2017-11-16T05:30:56.841Z,20.15
2017-11-16T05:33:24.452Z,21.02
2017-11-16T05:35:52.053Z,20.35
2017-11-16T05:38:19.686Z,21.77
2017-11-16T05:40:47.232Z,22.42
2017-11-16T05:43:14.828Z,22.95
2017-11-16T05:45:42.431Z,22.50
2017-11-16T05:48:10.782Z,22.27
2017-11-16T05:50:38.387Z,24.80
2017-11-16T05:53:05.953Z,25.40
2017-11-16T05:55:33.528Z,26.37
2017-11-16T05:58:01.149Z,25.95
2017-11-16T06:00:29.515Z,24.17
2017-11-16T06:02:57.892Z,25.10
2017-11-16T06:05:26.308Z,25.08
2017-11-16T06:07:53.902Z,23.90
2017-11-16T06:10:21.795Z,24.73
2017-11-16T06:12:50.184Z,26.33
2017-11-16T06:15:18.759Z,28.65
2017-11-16T06:17:48.049Z,32.28
2017-11-16T06:20:15.709Z,35.08
2017-11-16T06:22:43.263Z,25.17
2017-11-16T06:25:10.864Z,24.73
2017-11-16T06:27:38.415Z,26.20
2017-11-16T06:30:06.736Z,26.10
2017-11-16T06:32:34.331Z,28.27
2017-11-16T06:35:01.926Z,27.25
2017-11-16T06:37:29.517Z,26.20
2017-11-16T06:39:57.081Z,25.85
2017-11-16T06:42:24.692Z,25.77
2017-11-16T06:44:53.017Z,23.83
2017-11-16T06:47:20.603Z,28.08
2017-11-16T06:49:48.196Z,24.73
2017-11-16T06:52:16.551Z,24.60
2017-11-16T06:54:44.148Z,27.73
2017-11-16T06:57:11.752Z,27.80
2017-11-16T06:59:39.364Z,25.70
2017-11-16T07:02:07.719Z,25.30
2017-11-16T07:04:35.307Z,24.58
2017-11-16T07:07:02.910Z,24.75
2017-11-16T07:09:30.500Z,25.77
2017-11-16T07:11:58.117Z,27.35
2017-11-16T07:14:25.670Z,25.65
2017-11-16T07:16:53.260Z,25.73
2017-11-16T07:19:20.880Z,23.83
2017-11-16T07:21:48.483Z,24.45
2017-11-16T07:24:16.084Z,23.40
2017-11-16T07:26:43.672Z,24.67
2017-11-16T07:29:11.271Z,23.58
2017-11-16T07:31:38.863Z,24.83
2017-11-16T07:34:07.225Z,24.65
2017-11-16T07:36:34.875Z,25.62
2017-11-16T07:39:02.476Z,25.35
2017-11-16T07:41:30.103Z,25.58
2017-11-16T07:43:57.696Z,25.95
2017-11-16T07:46:25.306Z,26.40
2017-11-16T07:48:52.908Z,25.02
2017-11-16T07:51:21.321Z,32.33
2017-11-16T07:53:48.891Z,25.92
2017-11-16T07:56:16.503Z,37.70
2017-11-16T07:58:44.874Z,26.60
2017-11-16T08:01:13.204Z,24.63
2017-11-16T08:03:40.795Z,27.25
2017-11-16T08:06:08.844Z,24.70
2017-11-16T08:08:36.400Z,26.37
2017-11-16T08:11:03.964Z,25.65
2017-11-16T08:13:31.514Z,29.73
2017-11-16T08:15:59.175Z,25.12
2017-11-16T08:18:26.768Z,24.92
2017-11-16T08:20:54.426Z,24.35
2017-11-16T08:23:22.217Z,21.25
2017-11-16T08:25:50.572Z,24.23
2017-11-16T08:28:18.261Z,35.42
2017-11-16T08:30:46.621Z,16.62
2017-11-16T08:33:14.247Z,19.10
2017-11-16T08:35:41.841Z,16.48
2017-11-16T08:38:09.502Z,17.30
2017-11-16T08:40:37.099Z,16.60
2017-11-16T08:43:04.721Z,17.00
2017-11-16T08:45:32.334Z,16.75
2017-11-16T08:47:59.933Z,18.15
2017-11-16T08:50:27.575Z,15.93
2017-11-16T08:52:55.171Z,15.77
2017-11-16T08:55:22.777Z,15.60
2017-11-16T08:57:50.525Z,18.80
2017-11-16T09:00:18.180Z,17.95
2017-11-16T09:02:46.679Z,17.75
2017-11-16T09:05:14.297Z,17.12
2017-11-16T09:07:41.936Z,16.80
2017-11-16T09:10:09.537Z,17.65
2017-11-16T09:12:37.933Z,17.50
2017-11-16T09:15:06.316Z,18.85
2017-11-16T09:17:33.927Z,17.73
2017-11-16T09:20:01.488Z,16.23
2017-11-16T09:22:29.104Z,19.48
2017-11-16T09:24:56.693Z,21.48
2017-11-16T09:27:24.324Z,26.02
2017-11-16T09:29:51.929Z,17.80
2017-11-16T09:32:19.547Z,31.90
2017-11-16T09:34:47.164Z,22.87
2017-11-16T09:37:14.764Z,27.87
2017-11-16T09:39:42.373Z,31.25
2017-11-16T09:42:09.960Z,25.75
2017-11-16T09:44:37.519Z,97.28
2017-11-16T09:47:05.181Z,181.63
2017-11-16T09:49:32.778Z,26.05
2017-11-16T09:52:00.378Z,15.35
2017-11-16T09:54:28.776Z,16.62
2017-11-16T09:56:56.373Z,16.75
2017-11-16T09:59:24.065Z,16.37
2017-11-16T10:01:51.906Z,16.70
2017-11-16T10:04:19.513Z,16.45
2017-11-16T10:06:47.118Z,16.62
2017-11-16T10:09:14.740Z,17.00
2017-11-16T10:11:42.338Z,16.12
2017-11-16T10:14:09.936Z,17.08
2017-11-16T10:16:38.176Z,17.50
2017-11-16T10:19:05.771Z,15.32
2017-11-16T10:21:33.436Z,15.38
2017-11-16T10:24:01.024Z,16.12
2017-11-16T10:26:28.582Z,14.40
2017-11-16T10:28:56.176Z,15.65
2017-11-16T10:31:24.536Z,16.10
2017-11-16T10:33:52.135Z,13.75
2017-11-16T10:36:19.740Z,15.10
2017-11-16T10:38:47.302Z,13.60
2017-11-16T10:41:14.917Z,14.60
2017-11-16T10:43:42.512Z,13.20
2017-11-16T10:46:10.079Z,13.80
2017-11-16T10:48:37.653Z,12.75
2017-11-16T10:51:05.999Z,13.55
2017-11-16T10:53:33.556Z,13.45
2017-11-16T10:56:01.930Z,14.60
2017-11-16T10:58:29.483Z,13.15
2017-11-16T11:00:57.356Z,14.05
2017-11-16T11:03:27.148Z,13.75
2017-11-16T11:05:54.745Z,14.90
2017-11-16T11:08:22.300Z,15.50
2017-11-16T11:10:49.897Z,13.80
2017-11-16T11:13:17.489Z,13.57
2017-11-16T11:15:45.084Z,13.27
2017-11-16T11:18:12.687Z,11.45
2017-11-16T11:20:41.050Z,7.95
2017-11-16T11:23:08.641Z,9.65
2017-11-16T11:25:36.216Z,9.10
2017-11-16T11:28:03.767Z,9.93
2017-11-16T11:30:31.356Z,11.07
2017-11-16T11:32:58.915Z,10.48
2017-11-16T11:35:26.504Z,9.43
2017-11-16T11:37:54.152Z,10.85
2017-11-16T11:40:21.834Z,11.05
2017-11-16T11:42:49.432Z,11.60
2017-11-16T11:45:17.033Z,10.98
2017-11-16T11:47:44.679Z,11.63
2017-11-16T11:50:12.235Z,11.40
2017-11-16T11:52:39.834Z,11.45
2017-11-16T11:55:07.428Z,11.55
2017-11-16T11:57:35.784Z,12.63
2017-11-16T12:00:03.365Z,12.02
2017-11-16T12:02:31.726Z,12.05
2017-11-16T12:04:59.326Z,11.48
2017-11-16T12:07:26.969Z,12.70
2017-11-16T12:09:55.327Z,12.30
2017-11-16T12:12:22.919Z,12.57
2017-11-16T12:14:50.537Z,12.43
2017-11-16T12:17:18.132Z,12.50
2017-11-16T12:19:45.722Z,12.10
2017-11-16T12:22:13.308Z,12.13
2017-11-16T12:24:40.902Z,11.50
2017-11-16T12:27:09.254Z,9.00
2017-11-16T12:29:36.903Z,8.10
2017-11-16T12:32:04.525Z,8.45
2017-11-16T12:34:32.120Z,10.30
2017-11-16T12:36:59.741Z,8.15
2017-11-16T12:39:27.356Z,7.80
2017-11-16T12:41:54.978Z,9.80
2017-11-16T12:44:22.640Z,9.77
2017-11-16T12:46:50.290Z,9.88
2017-11-16T12:49:17.895Z,9.60
2017-11-16T12:51:45.512Z,11.70
2017-11-16T12:54:13.800Z,9.35
2017-11-16T12:56:41.412Z,11.65
2017-11-16T12:59:09.018Z,9.45
2017-11-16T13:01:36.619Z,10.05
2017-11-16T13:04:04.285Z,10.27
2017-11-16T13:06:31.894Z,10.13
2017-11-16T13:08:59.503Z,8.82
2017-11-16T13:11:27.381Z,9.73
2017-11-16T13:13:55.029Z,10.57
2017-11-16T13:16:22.749Z,10.50
2017-11-16T13:18:50.923Z,9.40
2017-11-16T13:21:18.621Z,9.85
2017-11-16T13:23:48.062Z,10.32
2017-11-16T13:26:16.404Z,9.07
2017-11-16T13:28:44.040Z,11.10
2017-11-16T13:31:12.396Z,13.43
2017-11-16T13:33:39.991Z,11.80
2017-11-16T13:36:07.598Z,9.68
2017-11-16T13:38:35.239Z,10.75
2017-11-16T13:41:02.895Z,11.95
2017-11-16T13:43:32.515Z,10.07
2017-11-16T13:46:00.601Z,11.20
2017-11-16T13:48:28.667Z,10.15
2017-11-16T13:50:56.942Z,10.48
2017-11-16T13:53:25.182Z,17.98
2017-11-16T13:55:53.354Z,8.70
2017-11-16T13:58:21.534Z,9.85
2017-11-16T14:00:49.740Z,11.18
2017-11-16T14:03:18.008Z,15.02
2017-11-16T14:05:46.158Z,15.25
2017-11-16T14:08:14.296Z,9.70
2017-11-16T14:10:42.993Z,10.32
2017-11-16T14:13:11.113Z,10.50
2017-11-16T14:15:38.844Z,9.70
2017-11-16T14:18:06.647Z,10.57
2017-11-16T14:20:34.323Z,10.25
2017-11-16T14:23:02.969Z,9.60
2017-11-16T14:25:30.579Z,9.95
2017-11-16T14:27:58.952Z,10.63
2017-11-16T14:30:27.336Z,10.05
2017-11-16T14:32:55.712Z,16.17
2017-11-16T14:35:24.006Z,17.42
2017-11-16T14:37:51.614Z,12.07
2017-11-16T14:40:19.227Z,12.23
2017-11-16T14:42:47.806Z,12.88
2017-11-16T14:45:15.970Z,16.37
2017-11-16T14:47:43.641Z,15.75
2017-11-16T14:50:12.001Z,10.20
2017-11-16T14:52:39.609Z,13.88
2017-11-16T14:55:07.308Z,13.52
2017-11-16T14:57:35.511Z,10.90
2017-11-16T15:00:03.630Z,10.50
2017-11-16T15:02:31.708Z,11.82
2017-11-16T15:04:59.942Z,13.45
2017-11-16T15:07:27.631Z,11.25
2017-11-16T15:09:55.411Z,14.25
2017-11-16T15:12:23.018Z,11.18
2017-11-16T15:14:50.724Z,10.60
2017-11-16T15:17:18.481Z,11.10
2017-11-16T15:19:46.732Z,12.85
2017-11-16T15:22:14.842Z,15.73
2017-11-16T15:24:43.024Z,11.90
2017-11-16T15:27:11.128Z,11.27
2017-11-16T15:29:39.349Z,11.32
2017-11-16T15:32:08.295Z,12.32
2017-11-16T15:34:36.461Z,71.35
2017-11-16T15:37:04.713Z,24.58
2017-11-16T15:39:33.705Z,25.65
2017-11-16T15:42:01.832Z,23.12
2017-11-16T15:44:30.029Z,13.85
2017-11-16T15:46:58.745Z,14.80
2017-11-16T15:49:26.901Z,12.35
2017-11-16T15:51:55.187Z,11.10
2017-11-16T15:54:23.341Z,27.77
2017-11-16T15:56:51.510Z,14.82
2017-11-16T15:59:19.606Z,12.65
2017-11-16T16:01:47.784Z,12.65
2017-11-16T16:04:15.900Z,12.55
2017-11-16T16:06:44.030Z,11.60
2017-11-16T16:09:12.226Z,15.23
2017-11-16T16:11:40.429Z,14.73
2017-11-16T16:14:08.550Z,17.08
2017-11-16T16:16:36.765Z,16.48
2017-11-16T16:19:04.899Z,15.70
2017-11-16T16:21:33.070Z,15.70
2017-11-16T16:24:01.146Z,17.98
2017-11-16T16:26:29.179Z,15.35
2017-11-16T16:28:57.363Z,13.85
2017-11-16T16:31:26.080Z,13.75
2017-11-16T16:33:55.005Z,19.75
2017-11-16T16:36:23.320Z,17.12
2017-11-16T16:38:51.518Z,14.77
2017-11-16T16:41:19.825Z,18.87
2017-11-16T16:43:47.709Z,25.15
2017-11-16T16:46:15.465Z,27.15
2017-11-16T16:48:43.297Z,26.20
2017-11-16T16:51:11.065Z,23.58
2017-11-16T16:53:38.835Z,22.08
2017-11-16T16:56:06.824Z,23.95
2017-11-16T16:58:35.185Z,24.60
2017-11-16T17:01:02.942Z,22.65
2017-11-16T17:03:31.010Z,24.08
2017-11-16T17:05:59.333Z,27.48
2017-11-16T17:08:27.454Z,26.37
2017-11-16T17:10:55.589Z,29.00
2017-11-16T17:13:24.574Z,27.48
2017-11-16T17:15:52.703Z,28.05
2017-11-16T17:18:20.876Z,25.92
2017-11-16T17:20:49.080Z,25.62
2017-11-16T17:23:17.248Z,32.38
2017-11-16T17:25:45.456Z,44.63
2017-11-16T17:28:13.780Z,50.90
2017-11-16T17:30:42.080Z,48.40
2017-11-16T17:33:10.332Z,51.72
2017-11-16T17:35:38.509Z,50.92
2017-11-16T17:38:06.833Z,47.58
2017-11-16T17:40:35.468Z,47.13
2017-11-16T17:43:03.721Z,44.75
2017-11-16T17:45:32.525Z,36.10
2017-11-16T17:48:01.148Z,33.97
2017-11-16T17:50:28.849Z,36.85
2017-11-16T17:52:56.409Z,38.40
2017-11-16T17:55:24.004Z,40.92
2017-11-16T17:57:51.814Z,42.47
2017-11-16T18:00:19.819Z,34.08
2017-11-16T18:02:47.909Z,35.55
2017-11-16T18:05:15.674Z,31.02
2017-11-16T18:07:43.311Z,30.08
2017-11-16T18:10:11.396Z,30.42
2017-11-16T18:12:40.679Z,28.05
2017-11-16T18:15:08.419Z,26.75
2017-11-16T18:17:36.933Z,29.75
2017-11-16T18:20:04.625Z,31.80
2017-11-16T18:22:32.182Z,31.20
2017-11-16T18:24:59.793Z,36.13
2017-11-16T18:27:28.327Z,36.17
2017-11-16T18:29:57.249Z,35.42
2017-11-16T18:32:24.908Z,33.47
2017-11-16T18:34:52.668Z,32.90
2017-11-16T18:37:20.274Z,31.30
2017-11-16T18:39:47.952Z,29.63
2017-11-16T18:42:15.623Z,27.80
2017-11-16T18:44:43.264Z,24.05
2017-11-16T18:47:10.920Z,20.35
2017-11-16T18:49:38.606Z,20.95
2017-11-16T18:52:06.213Z,18.30
2017-11-16T18:54:33.808Z,17.67
2017-11-16T18:57:01.585Z,17.95
2017-11-16T18:59:29.308Z,15.90
2017-11-16T19:01:58.297Z,13.15
2017-11-16T19:04:26.311Z,12.05
2017-11-16T19:06:54.180Z,13.70
2017-11-16T19:09:22.132Z,12.82
2017-11-16T19:11:49.967Z,11.50
2017-11-16T19:14:18.391Z,12.48
2017-11-16T19:16:46.190Z,12.43
2017-11-16T19:19:13.926Z,12.37
2017-11-16T19:21:41.676Z,11.95
2017-11-16T19:24:09.356Z,13.00
2017-11-16T19:26:37.137Z,12.10
2017-11-16T19:29:05.022Z,15.07
2017-11-16T19:31:32.741Z,14.95
2017-11-16T19:34:01.070Z,15.63
2017-11-16T19:36:29.044Z,17.90
2017-11-16T19:38:56.912Z,18.00
2017-11-16T19:41:25.994Z,15.60
2017-11-16T19:43:53.818Z,15.95
2017-11-16T19:46:21.517Z,17.80
2017-11-16T19:48:49.527Z,18.40
2017-11-16T19:51:17.812Z,18.35
2017-11-16T19:53:45.525Z,25.75
2017-11-16T19:56:13.236Z,28.67
2017-11-16T19:58:40.976Z,34.63
2017-11-16T20:01:09.347Z,46.20
2017-11-16T20:03:37.053Z,51.83
2017-11-16T20:06:04.676Z,43.08
2017-11-16T20:08:33.088Z,33.58
2017-11-16T20:11:00.748Z,32.83
2017-11-16T20:13:28.503Z,31.48
2017-11-16T20:15:56.268Z,32.92
2017-11-16T20:18:24.044Z,27.87
2017-11-16T20:20:51.718Z,24.50
2017-11-16T20:23:19.448Z,17.37
2017-11-16T20:25:47.130Z,16.60
2017-11-16T20:28:14.975Z,14.05
2017-11-16T20:30:43.466Z,13.00
2017-11-16T20:33:11.196Z,12.95
2017-11-16T20:35:38.873Z,12.52
2017-11-16T20:38:09.014Z,13.15
2017-11-16T20:40:42.186Z,13.30
2017-11-16T20:43:27.253Z,14.48
2017-11-16T20:46:00.522Z,16.75
2017-11-16T20:48:34.005Z,16.27
2017-11-16T20:51:16.546Z,15.55
2017-11-16T20:53:45.630Z,15.20
2017-11-16T20:56:13.262Z,16.02
2017-11-16T20:58:40.856Z,14.85
2017-11-16T21:01:08.456Z,14.40
2017-11-16T21:03:36.873Z,14.87
2017-11-16T21:06:05.103Z,14.57
2017-11-16T21:08:33.493Z,14.80
2017-11-16T21:11:01.862Z,14.77
2017-11-16T21:13:29.545Z,14.45
2017-11-16T21:15:57.202Z,15.13
2017-11-16T21:18:24.842Z,14.70
2017-11-16T21:20:52.472Z,13.40
2017-11-16T21:23:20.124Z,13.38
2017-11-16T21:25:47.788Z,14.82
2017-11-16T21:28:15.432Z,14.93
2017-11-16T21:30:43.094Z,13.85
2017-11-16T21:33:10.756Z,14.15
2017-11-16T21:35:38.556Z,14.35
2017-11-16T21:38:06.193Z,14.70
2017-11-16T21:40:33.871Z,16.75
2017-11-16T21:43:01.603Z,15.63
2017-11-16T21:45:29.271Z,17.83
2017-11-16T21:47:57.112Z,15.30
2017-11-16T21:50:25.473Z,16.90
2017-11-16T21:52:53.126Z,16.42
2017-11-16T21:55:20.726Z,15.98
2017-11-16T21:57:48.350Z,17.85
2017-11-16T22:00:15.973Z,17.05
2017-11-16T22:02:43.584Z,17.48
2017-11-16T22:05:11.241Z,18.50
2017-11-16T22:07:38.794Z,17.60
2017-11-16T22:10:06.412Z,18.80
2017-11-16T22:12:34.053Z,18.10
2017-11-16T22:15:01.734Z,18.42
2017-11-16T22:17:29.297Z,17.73
2017-11-16T22:19:57.744Z,18.67
2017-11-16T22:22:26.108Z,18.90
2017-11-16T22:24:53.700Z,18.62
2017-11-16T22:27:22.115Z,19.40
2017-11-16T22:29:49.827Z,19.25
2017-11-16T22:32:18.195Z,19.17
2017-11-16T22:34:45.788Z,18.62
2017-11-16T22:37:13.380Z,20.30
2017-11-16T22:39:40.941Z,21.90
2017-11-16T22:42:08.523Z,20.08
2017-11-16T22:44:36.116Z,21.52
2017-11-16T22:47:03.781Z,21.60
2017-11-16T22:49:31.372Z,21.58
2017-11-16T22:51:59.168Z,20.23
2017-11-16T22:54:26.779Z,21.40
2017-11-16T22:56:54.376Z,20.12
2017-11-16T22:59:21.985Z,21.00
2017-11-16T23:01:50.296Z,22.40
2017-11-16T23:04:17.965Z,24.30
2017-11-16T23:06:45.551Z,23.62
2017-11-16T23:09:13.204Z,27.30
2017-11-16T23:11:40.797Z,27.23
2017-11-16T23:14:09.408Z,26.85
2017-11-16T23:16:37.752Z,27.23
2017-11-16T23:19:05.345Z,27.02
2017-11-16T23:21:32.961Z,29.60
2017-11-16T23:24:00.720Z,30.15
2017-11-16T23:26:28.491Z,38.30
2017-11-16T23:28:56.083Z,36.53
2017-11-16T23:31:23.676Z,37.15
2017-11-16T23:33:51.270Z,34.00
2017-11-16T23:36:18.862Z,32.67
2017-11-16T23:38:47.216Z,30.77
2017-11-16T23:41:14.816Z,27.20
2017-11-16T23:43:42.423Z,29.85
2017-11-16T23:46:10.128Z,30.58
2017-11-16T23:48:37.731Z,29.77
2017-11-16T23:51:05.319Z,29.50
2017-11-16T23:53:32.913Z,30.12
2017-11-16T23:56:00.473Z,32.75
2017-11-16T23:58:28.079Z,31.20
